sensor_id;sensor_type;location;lat;lon;timestamp;pressure;altitude;pressure_sealevel;temperature
19568;BMP280;9930;49.240;8.548;2023-02-27T00:00:23;101143.31;;;4.42
19568;BMP280;9930;49.240;8.548;2023-02-27T00:02:50;101137.16;;;4.38
19568;BMP280;9930;49.240;8.548;2023-02-27T00:05:19;101154.63;;;4.47
19568;BMP280;9930;49.240;8.548;2023-02-27T00:07:49;101156.16;;;4.45
19568;BMP280;9930;49.240;8.548;2023-02-27T00:10:16;101157.94;;;4.46
19568;BMP280;9930;49.240;8.548;2023-02-27T00:12:42;101138.56;;;4.35
19568;BMP280;9930;49.240;8.548;2023-02-27T00:15:16;101153.97;;;4.38
19568;BMP280;9930;49.240;8.548;2023-02-27T00:17:42;101148.78;;;4.36
19568;BMP280;9930;49.240;8.548;2023-02-27T00:20:14;101152.97;;;4.36
19568;BMP280;9930;49.240;8.548;2023-02-27T00:22:41;101139.13;;;4.31
19568;BMP280;9930;49.240;8.548;2023-02-27T00:25:08;101135.81;;;4.32
19568;BMP280;9930;49.240;8.548;2023-02-27T00:27:35;101157.91;;;4.34
19568;BMP280;9930;49.240;8.548;2023-02-27T00:30:07;101127.81;;;4.26
19568;BMP280;9930;49.240;8.548;2023-02-27T00:32:35;101134.38;;;4.23
19568;BMP280;9930;49.240;8.548;2023-02-27T00:35:06;101139.88;;;4.30
19568;BMP280;9930;49.240;8.548;2023-02-27T00:37:33;101154.03;;;4.28
19568;BMP280;9930;49.240;8.548;2023-02-27T00:40:00;101123.19;;;4.20
19568;BMP280;9930;49.240;8.548;2023-02-27T00:42:29;101139.19;;;4.20
19568;BMP280;9930;49.240;8.548;2023-02-27T00:45:01;101155.56;;;4.26
19568;BMP280;9930;49.240;8.548;2023-02-27T00:47:28;101145.13;;;4.21
19568;BMP280;9930;49.240;8.548;2023-02-27T00:50:02;101147.34;;;4.28
19568;BMP280;9930;49.240;8.548;2023-02-27T00:52:28;101149.66;;;4.25
19568;BMP280;9930;49.240;8.548;2023-02-27T00:54:54;101138.22;;;4.18
19568;BMP280;9930;49.240;8.548;2023-02-27T00:57:20;101147.22;;;4.27
19568;BMP280;9930;49.240;8.548;2023-02-27T00:59:47;101133.63;;;4.25
19568;BMP280;9930;49.240;8.548;2023-02-27T01:02:13;101139.75;;;4.16
19568;BMP280;9930;49.240;8.548;2023-02-27T01:04:39;101132.16;;;4.16
19568;BMP280;9930;49.240;8.548;2023-02-27T01:07:08;101139.44;;;4.23
19568;BMP280;9930;49.240;8.548;2023-02-27T01:09:34;101128.44;;;4.23
19568;BMP280;9930;49.240;8.548;2023-02-27T01:12:00;101135.25;;;4.24
19568;BMP280;9930;49.240;8.548;2023-02-27T01:14:26;101133.28;;;4.20
19568;BMP280;9930;49.240;8.548;2023-02-27T01:16:53;101135.03;;;4.21
19568;BMP280;9930;49.240;8.548;2023-02-27T01:19:20;101119.97;;;4.11
19568;BMP280;9930;49.240;8.548;2023-02-27T01:21:48;101121.63;;;4.10
19568;BMP280;9930;49.240;8.548;2023-02-27T01:24:17;101108.09;;;4.10
19568;BMP280;9930;49.240;8.548;2023-02-27T01:26:44;101118.00;;;4.18
19568;BMP280;9930;49.240;8.548;2023-02-27T01:29:14;101110.88;;;4.13
19568;BMP280;9930;49.240;8.548;2023-02-27T01:31:42;101125.47;;;4.17
19568;BMP280;9930;49.240;8.548;2023-02-27T01:34:07;101126.25;;;4.16
19568;BMP280;9930;49.240;8.548;2023-02-27T01:36:35;101122.38;;;4.09
19568;BMP280;9930;49.240;8.548;2023-02-27T01:39:01;101124.03;;;4.09
19568;BMP280;9930;49.240;8.548;2023-02-27T01:41:27;101126.56;;;4.09
19568;BMP280;9930;49.240;8.548;2023-02-27T01:43:56;101125.66;;;4.08
19568;BMP280;9930;49.240;8.548;2023-02-27T01:46:24;101123.03;;;4.07
19568;BMP280;9930;49.240;8.548;2023-02-27T01:48:56;101129.84;;;4.08
19568;BMP280;9930;49.240;8.548;2023-02-27T01:51:31;101119.28;;;4.02
19568;BMP280;9930;49.240;8.548;2023-02-27T01:54:06;101122.81;;;4.04
19568;BMP280;9930;49.240;8.548;2023-02-27T01:56:33;101132.47;;;4.09
19568;BMP280;9930;49.240;8.548;2023-02-27T01:59:06;101116.00;;;4.03
19568;BMP280;9930;49.240;8.548;2023-02-27T02:01:34;101129.72;;;4.06
19568;BMP280;9930;49.240;8.548;2023-02-27T02:04:30;101132.03;;;4.03
19568;BMP280;9930;49.240;8.548;2023-02-27T02:07:12;101125.22;;;4.02
19568;BMP280;9930;49.240;8.548;2023-02-27T02:09:54;101123.22;;;3.98
19568;BMP280;9930;49.240;8.548;2023-02-27T02:12:29;101135.09;;;3.99
19568;BMP280;9930;49.240;8.548;2023-02-27T02:14:56;101128.72;;;4.04
19568;BMP280;9930;49.240;8.548;2023-02-27T02:17:58;101132.78;;;4.02
19568;BMP280;9930;49.240;8.548;2023-02-27T02:23:49;101133.09;;;3.95
19568;BMP280;9930;49.240;8.548;2023-02-27T02:26:52;101141.19;;;3.91
19568;BMP280;9930;49.240;8.548;2023-02-27T02:39:02;101148.84;;;3.81
19568;BMP280;9930;49.240;8.548;2023-02-27T02:42:04;101136.41;;;3.72
19568;BMP280;9930;49.240;8.548;2023-02-27T02:54:05;101149.13;;;3.74
19568;BMP280;9930;49.240;8.548;2023-02-27T02:56:47;101151.66;;;3.74
19568;BMP280;9930;49.240;8.548;2023-02-27T02:59:31;101144.50;;;3.68
19568;BMP280;9930;49.240;8.548;2023-02-27T03:02:10;101154.06;;;3.72
19568;BMP280;9930;49.240;8.548;2023-02-27T03:07:46;101157.34;;;3.71
19568;BMP280;9930;49.240;8.548;2023-02-27T03:13:18;101140.63;;;3.62
19568;BMP280;9930;49.240;8.548;2023-02-27T03:16:23;101151.94;;;3.67
19568;BMP280;9930;49.240;8.548;2023-02-27T03:19:24;101147.44;;;3.63
19568;BMP280;9930;49.240;8.548;2023-02-27T03:22:09;101161.81;;;3.64
19568;BMP280;9930;49.240;8.548;2023-02-27T03:24:51;101143.56;;;3.56
19568;BMP280;9930;49.240;8.548;2023-02-27T03:27:21;101148.59;;;3.56
19568;BMP280;9930;49.240;8.548;2023-02-27T03:30:07;101160.91;;;3.63
19568;BMP280;9930;49.240;8.548;2023-02-27T03:32:45;101152.75;;;3.55
19568;BMP280;9930;49.240;8.548;2023-02-27T03:35:16;101161.56;;;3.61
19568;BMP280;9930;49.240;8.548;2023-02-27T03:46:26;101165.41;;;3.45
19568;BMP280;9930;49.240;8.548;2023-02-27T03:48:53;101172.34;;;3.48
19568;BMP280;9930;49.240;8.548;2023-02-27T03:51:21;101180.03;;;3.49
19568;BMP280;9930;49.240;8.548;2023-02-27T03:53:56;101187.72;;;3.51
19568;BMP280;9930;49.240;8.548;2023-02-27T03:56:31;101182.56;;;3.49
19568;BMP280;9930;49.240;8.548;2023-02-27T03:59:04;101172.75;;;3.42
19568;BMP280;9930;49.240;8.548;2023-02-27T04:01:33;101171.75;;;3.40
19568;BMP280;9930;49.240;8.548;2023-02-27T04:04:12;101175.16;;;3.41
19568;BMP280;9930;49.240;8.548;2023-02-27T04:06:45;101180.06;;;3.39
19568;BMP280;9930;49.240;8.548;2023-02-27T04:27:21;101180.28;;;3.20
19568;BMP280;9930;49.240;8.548;2023-02-27T04:30:24;101199.28;;;3.27
19568;BMP280;9930;49.240;8.548;2023-02-27T04:33:26;101186.94;;;3.20
19568;BMP280;9930;49.240;8.548;2023-02-27T04:36:05;101189.59;;;3.21
19568;BMP280;9930;49.240;8.548;2023-02-27T04:38:54;101204.09;;;3.24
19568;BMP280;9930;49.240;8.548;2023-02-27T04:44:10;101204.72;;;3.21
19568;BMP280;9930;49.240;8.548;2023-02-27T04:46:41;101202.72;;;3.17
19568;BMP280;9930;49.240;8.548;2023-02-27T04:49:21;101201.06;;;3.18
19568;BMP280;9930;49.240;8.548;2023-02-27T04:52:21;101216.97;;;3.17
19568;BMP280;9930;49.240;8.548;2023-02-27T04:55:04;101219.34;;;3.15
19568;BMP280;9930;49.240;8.548;2023-02-27T04:57:59;101214.84;;;3.11
19568;BMP280;9930;49.240;8.548;2023-02-27T05:00:33;101209.44;;;3.07
19568;BMP280;9930;49.240;8.548;2023-02-27T05:03:11;101220.88;;;3.13
19568;BMP280;9930;49.240;8.548;2023-02-27T05:05:41;101199.34;;;3.07
19568;BMP280;9930;49.240;8.548;2023-02-27T05:08:35;101217.22;;;3.10
19568;BMP280;9930;49.240;8.548;2023-02-27T05:11:25;101202.38;;;3.03
19568;BMP280;9930;49.240;8.548;2023-02-27T05:14:20;101202.00;;;2.98
19568;BMP280;9930;49.240;8.548;2023-02-27T05:17:01;101201.00;;;2.96
19568;BMP280;9930;49.240;8.548;2023-02-27T05:19:31;101216.75;;;3.04
19568;BMP280;9930;49.240;8.548;2023-02-27T05:22:47;101214.84;;;3.01
19568;BMP280;9930;49.240;8.548;2023-02-27T05:25:38;101206.69;;;2.93
19568;BMP280;9930;49.240;8.548;2023-02-27T05:28:45;101216.25;;;2.98
19568;BMP280;9930;49.240;8.548;2023-02-27T05:31:26;101216.25;;;2.98
19568;BMP280;9930;49.240;8.548;2023-02-27T05:34:06;101204.53;;;2.88
19568;BMP280;9930;49.240;8.548;2023-02-27T05:36:49;101212.47;;;2.92
19568;BMP280;9930;49.240;8.548;2023-02-27T05:39:19;101210.97;;;2.95
19568;BMP280;9930;49.240;8.548;2023-02-27T05:41:52;101221.53;;;3.01
19568;BMP280;9930;49.240;8.548;2023-02-27T05:44:29;101224.94;;;3.01
19568;BMP280;9930;49.240;8.548;2023-02-27T05:47:05;101229.97;;;3.01
19568;BMP280;9930;49.240;8.548;2023-02-27T05:52:23;101227.34;;;3.00
19568;BMP280;9930;49.240;8.548;2023-02-27T05:55:18;101227.22;;;2.98
19568;BMP280;9930;49.240;8.548;2023-02-27T05:58:03;101222.94;;;2.97
19568;BMP280;9930;49.240;8.548;2023-02-27T06:03:11;101230.34;;;2.96
19568;BMP280;9930;49.240;8.548;2023-02-27T06:05:40;101223.31;;;2.91
19568;BMP280;9930;49.240;8.548;2023-02-27T06:08:06;101223.31;;;2.91
19568;BMP280;9930;49.240;8.548;2023-02-27T06:10:32;101230.47;;;2.97
19568;BMP280;9930;49.240;8.548;2023-02-27T06:13:01;101232.13;;;2.97
19568;BMP280;9930;49.240;8.548;2023-02-27T06:15:29;101235.78;;;2.90
19568;BMP280;9930;49.240;8.548;2023-02-27T06:18:03;101230.34;;;2.96
19568;BMP280;9930;49.240;8.548;2023-02-27T06:20:31;101230.13;;;2.92
19568;BMP280;9930;49.240;8.548;2023-02-27T06:23:01;101231.13;;;2.95
19568;BMP280;9930;49.240;8.548;2023-02-27T06:25:29;101243.56;;;3.03
19568;BMP280;9930;49.240;8.548;2023-02-27T06:27:57;101240.06;;;3.01
19568;BMP280;9930;49.240;8.548;2023-02-27T06:30:23;101241.94;;;3.04
19568;BMP280;9930;49.240;8.548;2023-02-27T06:32:51;101248.22;;;3.09
19568;BMP280;9930;49.240;8.548;2023-02-27T06:35:16;101241.81;;;3.02
19568;BMP280;9930;49.240;8.548;2023-02-27T06:37:44;101237.78;;;3.04
19568;BMP280;9930;49.240;8.548;2023-02-27T06:40:13;101242.06;;;3.05
19568;BMP280;9930;49.240;8.548;2023-02-27T06:42:44;101249.34;;;3.12
19568;BMP280;9930;49.240;8.548;2023-02-27T06:45:12;101248.09;;;3.07
19568;BMP280;9930;49.240;8.548;2023-02-27T06:47:40;101241.31;;;3.06
19568;BMP280;9930;49.240;8.548;2023-02-27T06:50:10;101265.59;;;3.16
19568;BMP280;9930;49.240;8.548;2023-02-27T06:52:40;101250.00;;;3.10
19568;BMP280;9930;49.240;8.548;2023-02-27T06:55:10;101267.63;;;3.20
19568;BMP280;9930;49.240;8.548;2023-02-27T06:57:36;101269.25;;;3.19
19568;BMP280;9930;49.240;8.548;2023-02-27T07:00:04;101268.50;;;3.20
19568;BMP280;9930;49.240;8.548;2023-02-27T07:02:34;101277.44;;;3.27
19568;BMP280;9930;49.240;8.548;2023-02-27T07:05:00;101266.59;;;3.28
19568;BMP280;9930;49.240;8.548;2023-02-27T07:07:32;101278.06;;;3.35
19568;BMP280;9930;49.240;8.548;2023-02-27T07:10:02;101277.28;;;3.36
19568;BMP280;9930;49.240;8.548;2023-02-27T07:12:28;101292.16;;;3.43
19568;BMP280;9930;49.240;8.548;2023-02-27T07:14:56;101290.88;;;3.48
19568;BMP280;9930;49.240;8.548;2023-02-27T07:17:25;101293.13;;;3.55
19568;BMP280;9930;49.240;8.548;2023-02-27T07:19:53;101276.22;;;3.54
19568;BMP280;9930;49.240;8.548;2023-02-27T07:22:19;101281.13;;;3.63
19568;BMP280;9930;49.240;8.548;2023-02-27T07:24:45;101277.56;;;3.71
19568;BMP280;9930;49.240;8.548;2023-02-27T07:27:14;101297.31;;;3.86
19568;BMP280;9930;49.240;8.548;2023-02-27T07:29:43;101297.91;;;3.94
19568;BMP280;9930;49.240;8.548;2023-02-27T07:32:09;101288.69;;;3.95
19568;BMP280;9930;49.240;8.548;2023-02-27T07:34:37;101275.31;;;3.96
19568;BMP280;9930;49.240;8.548;2023-02-27T07:37:05;101279.66;;;4.08
19568;BMP280;9930;49.240;8.548;2023-02-27T07:39:39;101284.41;;;4.15
19568;BMP280;9930;49.240;8.548;2023-02-27T07:42:07;101285.88;;;4.23
19568;BMP280;9930;49.240;8.548;2023-02-27T07:44:33;101296.44;;;4.30
19568;BMP280;9930;49.240;8.548;2023-02-27T07:46:58;101290.88;;;4.34
19568;BMP280;9930;49.240;8.548;2023-02-27T07:49:29;101297.03;;;4.37
19568;BMP280;9930;49.240;8.548;2023-02-27T07:52:01;101294.63;;;4.39
19568;BMP280;9930;49.240;8.548;2023-02-27T07:54:27;101292.09;;;4.39
19568;BMP280;9930;49.240;8.548;2023-02-27T07:56:59;101297.97;;;4.49
19568;BMP280;9930;49.240;8.548;2023-02-27T07:59:30;101305.13;;;4.55
19568;BMP280;9930;49.240;8.548;2023-02-27T08:01:55;101301.31;;;4.60
19568;BMP280;9930;49.240;8.548;2023-02-27T08:04:24;101303.28;;;4.64
19568;BMP280;9930;49.240;8.548;2023-02-27T08:06:49;101286.38;;;4.63
19568;BMP280;9930;49.240;8.548;2023-02-27T08:09:15;101306.75;;;4.76
19568;BMP280;9930;49.240;8.548;2023-02-27T08:11:41;101293.81;;;4.83
19568;BMP280;9930;49.240;8.548;2023-02-27T08:14:07;101282.59;;;4.80
19568;BMP280;9930;49.240;8.548;2023-02-27T08:16:37;101297.31;;;4.85
19568;BMP280;9930;49.240;8.548;2023-02-27T08:19:05;101309.09;;;4.97
19568;BMP280;9930;49.240;8.548;2023-02-27T08:21:31;101297.81;;;5.03
19568;BMP280;9930;49.240;8.548;2023-02-27T08:24:03;101295.50;;;5.06
19568;BMP280;9930;49.240;8.548;2023-02-27T08:26:29;101289.66;;;5.07
19568;BMP280;9930;49.240;8.548;2023-02-27T08:28:55;101298.16;;;5.19
19568;BMP280;9930;49.240;8.548;2023-02-27T08:31:24;101308.78;;;5.27
19568;BMP280;9930;49.240;8.548;2023-02-27T08:33:52;101292.84;;;5.28
19568;BMP280;9930;49.240;8.548;2023-02-27T08:36:20;101298.56;;;5.37
19568;BMP280;9930;49.240;8.548;2023-02-27T08:38:48;101293.97;;;5.43
19568;BMP280;9930;49.240;8.548;2023-02-27T08:41:16;101303.88;;;5.52
19568;BMP280;9930;49.240;8.548;2023-02-27T08:43:44;101290.78;;;5.58
19568;BMP280;9930;49.240;8.548;2023-02-27T08:46:14;101299.34;;;5.60
19568;BMP280;9930;49.240;8.548;2023-02-27T08:48:42;101292.09;;;5.64
19568;BMP280;9930;49.240;8.548;2023-02-27T08:51:11;101308.69;;;5.72
19568;BMP280;9930;49.240;8.548;2023-02-27T08:53:39;101309.03;;;5.77
19568;BMP280;9930;49.240;8.548;2023-02-27T08:56:05;101301.31;;;5.75
19568;BMP280;9930;49.240;8.548;2023-02-27T08:58:31;101301.09;;;5.84
19568;BMP280;9930;49.240;8.548;2023-02-27T09:01:01;101307.03;;;5.96
19568;BMP280;9930;49.240;8.548;2023-02-27T09:03:32;101321.78;;;6.02
19568;BMP280;9930;49.240;8.548;2023-02-27T09:05:57;101305.28;;;5.95
19568;BMP280;9930;49.240;8.548;2023-02-27T09:08:23;101320.47;;;6.07
19568;BMP280;9930;49.240;8.548;2023-02-27T09:10:54;101322.31;;;6.09
19568;BMP280;9930;49.240;8.548;2023-02-27T09:13:19;101324.75;;;6.08
19568;BMP280;9930;49.240;8.548;2023-02-27T09:15:48;101308.88;;;6.10
19568;BMP280;9930;49.240;8.548;2023-02-27T09:18:14;101345.97;;;6.22
19568;BMP280;9930;49.240;8.548;2023-02-27T09:20:42;101339.56;;;6.27
19568;BMP280;9930;49.240;8.548;2023-02-27T09:23:08;101337.25;;;6.30
19568;BMP280;9930;49.240;8.548;2023-02-27T09:25:34;101338.66;;;6.38
19568;BMP280;9930;49.240;8.548;2023-02-27T09:28:02;101338.34;;;6.33
19568;BMP280;9930;49.240;8.548;2023-02-27T09:30:28;101348.69;;;6.36
19568;BMP280;9930;49.240;8.548;2023-02-27T09:32:53;101350.88;;;6.43
19568;BMP280;9930;49.240;8.548;2023-02-27T09:35:19;101346.78;;;6.45
19568;BMP280;9930;49.240;8.548;2023-02-27T09:37:45;101338.41;;;6.46
19568;BMP280;9930;49.240;8.548;2023-02-27T09:43:01;101350.38;;;6.61
19568;BMP280;9930;49.240;8.548;2023-02-27T09:45:32;101360.06;;;6.66
19568;BMP280;9930;49.240;8.548;2023-02-27T09:48:31;101335.59;;;6.67
19568;BMP280;9930;49.240;8.548;2023-02-27T09:51:02;101350.91;;;6.68
19568;BMP280;9930;49.240;8.548;2023-02-27T09:53:43;101345.25;;;6.72
19568;BMP280;9930;49.240;8.548;2023-02-27T09:59:20;101362.09;;;6.83
19568;BMP280;9930;49.240;8.548;2023-02-27T10:02:28;101370.78;;;6.87
19568;BMP280;9930;49.240;8.548;2023-02-27T10:05:11;101360.06;;;6.91
19568;BMP280;9930;49.240;8.548;2023-02-27T10:08:16;101352.09;;;6.98
19568;BMP280;9930;49.240;8.548;2023-02-27T10:11:02;101365.97;;;7.03
19568;BMP280;9930;49.240;8.548;2023-02-27T10:16:46;101367.25;;;7.10
19568;BMP280;9930;49.240;8.548;2023-02-27T10:19:30;101366.09;;;7.18
19568;BMP280;9930;49.240;8.548;2023-02-27T10:22:04;101363.97;;;7.24
19568;BMP280;9930;49.240;8.548;2023-02-27T10:25:03;101360.84;;;7.28
19568;BMP280;9930;49.240;8.548;2023-02-27T10:27:32;101369.38;;;7.42
19568;BMP280;9930;49.240;8.548;2023-02-27T10:30:20;101380.00;;;7.50
19568;BMP280;9930;49.240;8.548;2023-02-27T10:32:53;101370.16;;;7.54
19568;BMP280;9930;49.240;8.548;2023-02-27T10:35:33;101374.84;;;7.61
19568;BMP280;9930;49.240;8.548;2023-02-27T10:38:42;101387.38;;;7.71
19568;BMP280;9930;49.240;8.548;2023-02-27T10:41:16;101367.53;;;7.79
19568;BMP280;9930;49.240;8.548;2023-02-27T10:43:45;101374.78;;;7.86
19568;BMP280;9930;49.240;8.548;2023-02-27T10:46:24;101363.13;;;7.90
19568;BMP280;9930;49.240;8.548;2023-02-27T10:48:53;101385.13;;;8.02
19568;BMP280;9930;49.240;8.548;2023-02-27T10:51:22;101367.25;;;8.01
19568;BMP280;9930;49.240;8.548;2023-02-27T10:53:50;101384.81;;;8.11
19568;BMP280;9930;49.240;8.548;2023-02-27T10:56:30;101364.00;;;8.03
19568;BMP280;9930;49.240;8.548;2023-02-27T10:59:15;101369.47;;;8.09
19568;BMP280;9930;49.240;8.548;2023-02-27T11:04:50;101361.94;;;8.11
19568;BMP280;9930;49.240;8.548;2023-02-27T11:07:46;101381.88;;;8.18
19568;BMP280;9930;49.240;8.548;2023-02-27T11:12:40;101364.78;;;8.16
19568;BMP280;9930;49.240;8.548;2023-02-27T11:17:42;101363.81;;;8.13
19568;BMP280;9930;49.240;8.548;2023-02-27T11:20:34;101362.44;;;8.19
19568;BMP280;9930;49.240;8.548;2023-02-27T11:23:23;101356.28;;;8.15
19568;BMP280;9930;49.240;8.548;2023-02-27T11:25:50;101363.69;;;8.25
19568;BMP280;9930;49.240;8.548;2023-02-27T11:28:35;101363.78;;;8.27
19568;BMP280;9930;49.240;8.548;2023-02-27T11:31:22;101361.16;;;8.25
19568;BMP280;9930;49.240;8.548;2023-02-27T11:33:56;101351.94;;;8.27
19568;BMP280;9930;49.240;8.548;2023-02-27T11:36:46;101360.44;;;8.28
19568;BMP280;9930;49.240;8.548;2023-02-27T11:41:50;101346.09;;;8.28
19568;BMP280;9930;49.240;8.548;2023-02-27T11:44:21;101369.84;;;8.29
19568;BMP280;9930;49.240;8.548;2023-02-27T11:46:49;101356.94;;;8.26
19568;BMP280;9930;49.240;8.548;2023-02-27T11:49:48;101353.25;;;8.21
19568;BMP280;9930;49.240;8.548;2023-02-27T11:52:42;101349.44;;;8.14
19568;BMP280;9930;49.240;8.548;2023-02-27T11:55:19;101352.94;;;8.16
19568;BMP280;9930;49.240;8.548;2023-02-27T11:57:53;101353.81;;;8.17
19568;BMP280;9930;49.240;8.548;2023-02-27T12:00:53;101346.41;;;8.20
19568;BMP280;9930;49.240;8.548;2023-02-27T12:06:26;101346.69;;;8.24
19568;BMP280;9930;49.240;8.548;2023-02-27T12:09:08;101343.94;;;8.21
19568;BMP280;9930;49.240;8.548;2023-02-27T12:11:44;101332.91;;;8.21
19568;BMP280;9930;49.240;8.548;2023-02-27T12:14:45;101343.84;;;8.33
19568;BMP280;9930;49.240;8.548;2023-02-27T12:17:22;101352.66;;;8.38
19568;BMP280;9930;49.240;8.548;2023-02-27T12:20:22;101346.09;;;8.41
19568;BMP280;9930;49.240;8.548;2023-02-27T12:22:56;101332.59;;;8.42
19568;BMP280;9930;49.240;8.548;2023-02-27T12:25:51;101329.44;;;8.47
19568;BMP280;9930;49.240;8.548;2023-02-27T12:31:53;101317.38;;;8.57
19568;BMP280;9930;49.240;8.548;2023-02-27T12:34:46;101316.00;;;8.62
19568;BMP280;9930;49.240;8.548;2023-02-27T12:37:22;101316.78;;;8.61
19568;BMP280;9930;49.240;8.548;2023-02-27T12:39:52;101309.41;;;8.66
19568;BMP280;9930;49.240;8.548;2023-02-27T12:42:32;101316.72;;;8.74
19568;BMP280;9930;49.240;8.548;2023-02-27T12:45:21;101320.50;;;8.81
19568;BMP280;9930;49.240;8.548;2023-02-27T12:48:20;101315.69;;;8.86
19568;BMP280;9930;49.240;8.548;2023-02-27T12:57:00;101297.81;;;8.99
19568;BMP280;9930;49.240;8.548;2023-02-27T13:03:00;101301.66;;;8.92
19568;BMP280;9930;49.240;8.548;2023-02-27T13:05:59;101273.13;;;8.83
19568;BMP280;9930;49.240;8.548;2023-02-27T13:11:22;101290.41;;;8.89
19568;BMP280;9930;49.240;8.548;2023-02-27T13:14:00;101281.81;;;8.87
19568;BMP280;9930;49.240;8.548;2023-02-27T13:17:11;101276.91;;;8.90
19568;BMP280;9930;49.240;8.548;2023-02-27T13:19:47;101290.69;;;8.93
19568;BMP280;9930;49.240;8.548;2023-02-27T13:23:00;101290.69;;;8.93
19568;BMP280;9930;49.240;8.548;2023-02-27T13:25:13;101287.53;;;8.97
19568;BMP280;9930;49.240;8.548;2023-02-27T13:28:02;101278.06;;;8.95
19568;BMP280;9930;49.240;8.548;2023-02-27T13:30:34;101289.56;;;9.03
19568;BMP280;9930;49.240;8.548;2023-02-27T13:33:23;101287.19;;;9.06
19568;BMP280;9930;49.240;8.548;2023-02-27T13:36:21;101274.19;;;9.16
19568;BMP280;9930;49.240;8.548;2023-02-27T13:38:54;101259.63;;;9.14
19568;BMP280;9930;49.240;8.548;2023-02-27T13:43:47;101285.88;;;9.27
19568;BMP280;9930;49.240;8.548;2023-02-27T13:51:49;101286.75;;;9.28
19568;BMP280;9930;49.240;8.548;2023-02-27T13:54:17;101262.69;;;9.23
19568;BMP280;9930;49.240;8.548;2023-02-27T13:59:32;101281.81;;;9.31
19568;BMP280;9930;49.240;8.548;2023-02-27T14:02:28;101282.53;;;9.28
19568;BMP280;9930;49.240;8.548;2023-02-27T14:05:02;101276.22;;;9.22
19568;BMP280;9930;49.240;8.548;2023-02-27T14:07:49;101300.69;;;9.20
19568;BMP280;9930;49.240;8.548;2023-02-27T14:10:29;101295.53;;;9.18
19568;BMP280;9930;49.240;8.548;2023-02-27T14:12:56;101283.84;;;9.07
19568;BMP280;9930;49.240;8.548;2023-02-27T14:17:56;101293.69;;;9.16
19568;BMP280;9930;49.240;8.548;2023-02-27T14:25:46;101293.31;;;9.24
19568;BMP280;9930;49.240;8.548;2023-02-27T14:28:52;101306.06;;;9.24
19568;BMP280;9930;49.240;8.548;2023-02-27T14:31:33;101301.94;;;9.26
19568;BMP280;9930;49.240;8.548;2023-02-27T14:34:06;101294.19;;;9.25
19568;BMP280;9930;49.240;8.548;2023-02-27T14:36:53;101288.94;;;9.22
19568;BMP280;9930;49.240;8.548;2023-02-27T14:39:34;101282.44;;;9.12
19568;BMP280;9930;49.240;8.548;2023-02-27T14:44:50;101301.84;;;9.10
19568;BMP280;9930;49.240;8.548;2023-02-27T14:47:37;101275.34;;;9.06
19568;BMP280;9930;49.240;8.548;2023-02-27T14:50:20;101272.25;;;8.97
19568;BMP280;9930;49.240;8.548;2023-02-27T14:52:47;101290.53;;;9.05
19568;BMP280;9930;49.240;8.548;2023-02-27T14:55:18;101290.59;;;9.06
19568;BMP280;9930;49.240;8.548;2023-02-27T14:58:13;101297.38;;;9.06
19568;BMP280;9930;49.240;8.548;2023-02-27T15:01:02;101290.53;;;9.05
19568;BMP280;9930;49.240;8.548;2023-02-27T15:03:46;101294.66;;;9.03
19568;BMP280;9930;49.240;8.548;2023-02-27T15:06:18;101295.34;;;9.00
19568;BMP280;9930;49.240;8.548;2023-02-27T15:08:53;101300.34;;;8.99
19568;BMP280;9930;49.240;8.548;2023-02-27T15:11:22;101293.16;;;8.92
19568;BMP280;9930;49.240;8.548;2023-02-27T15:14:05;101303.75;;;8.85
19568;BMP280;9930;49.240;8.548;2023-02-27T15:16:38;101293.03;;;8.75
19568;BMP280;9930;49.240;8.548;2023-02-27T15:19:31;101287.31;;;8.65
19568;BMP280;9930;49.240;8.548;2023-02-27T15:22:01;101293.69;;;8.58
19568;BMP280;9930;49.240;8.548;2023-02-27T15:24:33;101298.69;;;8.57
19568;BMP280;9930;49.240;8.548;2023-02-27T15:27:24;101304.47;;;8.54
19568;BMP280;9930;49.240;8.548;2023-02-27T15:29:59;101275.97;;;8.45
19568;BMP280;9930;49.240;8.548;2023-02-27T15:32:34;101289.56;;;8.46
19568;BMP280;9930;49.240;8.548;2023-02-27T15:35:18;101293.25;;;8.51
19568;BMP280;9930;49.240;8.548;2023-02-27T15:37:52;101310.16;;;8.50
19568;BMP280;9930;49.240;8.548;2023-02-27T15:40:26;101293.75;;;8.45
19568;BMP280;9930;49.240;8.548;2023-02-27T15:42:54;101302.00;;;8.41
19568;BMP280;9930;49.240;8.548;2023-02-27T15:45:41;101316.47;;;8.42
19568;BMP280;9930;49.240;8.548;2023-02-27T15:48:17;101306.78;;;8.36
19568;BMP280;9930;49.240;8.548;2023-02-27T15:50:56;101309.03;;;8.32
19568;BMP280;9930;49.240;8.548;2023-02-27T15:53:26;101302.69;;;8.25
19568;BMP280;9930;49.240;8.548;2023-02-27T15:58:27;101315.13;;;8.21
19568;BMP280;9930;49.240;8.548;2023-02-27T16:01:12;101310.44;;;8.13
19568;BMP280;9930;49.240;8.548;2023-02-27T16:03:47;101312.38;;;8.18
19568;BMP280;9930;49.240;8.548;2023-02-27T16:06:28;101322.16;;;8.11
19568;BMP280;9930;49.240;8.548;2023-02-27T16:09:13;101321.66;;;8.17
19568;BMP280;9930;49.240;8.548;2023-02-27T16:11:40;101330.25;;;8.19
19568;BMP280;9930;49.240;8.548;2023-02-27T16:14:40;101326.06;;;8.20
19568;BMP280;9930;49.240;8.548;2023-02-27T16:17:55;101339.38;;;8.16
19568;BMP280;9930;49.240;8.548;2023-02-27T16:28:50;101353.28;;;7.94
19568;BMP280;9930;49.240;8.548;2023-02-27T16:33:49;101357.28;;;7.91
19568;BMP280;9930;49.240;8.548;2023-02-27T16:36:22;101351.53;;;7.80
19568;BMP280;9930;49.240;8.548;2023-02-27T16:38:50;101357.28;;;7.77
19568;BMP280;9930;49.240;8.548;2023-02-27T16:41:24;101363.81;;;7.74
19568;BMP280;9930;49.240;8.548;2023-02-27T16:43:52;101373.78;;;7.71
19568;BMP280;9930;49.240;8.548;2023-02-27T16:46:18;101361.69;;;7.67
19568;BMP280;9930;49.240;8.548;2023-02-27T16:48:54;101371.53;;;7.62
19568;BMP280;9930;49.240;8.548;2023-02-27T16:51:27;101372.91;;;7.57
19568;BMP280;9930;49.240;8.548;2023-02-27T16:53:56;101379.44;;;7.54
19568;BMP280;9930;49.240;8.548;2023-02-27T16:56:27;101375.81;;;7.50
19568;BMP280;9930;49.240;8.548;2023-02-27T16:58:53;101377.28;;;7.46
19568;BMP280;9930;49.240;8.548;2023-02-27T17:01:19;101382.25;;;7.45
19568;BMP280;9930;49.240;8.548;2023-02-27T17:03:48;101382.06;;;7.42
19568;BMP280;9930;49.240;8.548;2023-02-27T17:06:20;101388.69;;;7.40
19568;BMP280;9930;49.240;8.548;2023-02-27T17:08:45;101378.13;;;7.34
19568;BMP280;9930;49.240;8.548;2023-02-27T17:11:11;101382.34;;;7.33
19568;BMP280;9930;49.240;8.548;2023-02-27T17:13:37;101373.84;;;7.33
19568;BMP280;9930;49.240;8.548;2023-02-27T17:16:06;101398.06;;;7.41
19568;BMP280;9930;49.240;8.548;2023-02-27T17:18:35;101395.63;;;7.42
19568;BMP280;9930;49.240;8.548;2023-02-27T17:21:04;101404.03;;;7.41
19568;BMP280;9930;49.240;8.548;2023-02-27T17:23:32;101402.25;;;7.40